Time;durP1;ratioP1;P1;durP2;ratioP2;P2;SDS_P1;SDS_P2;PMS_P1;PMS_P2;Temp;Humidity;BMP_temperature;BMP_pressure;BME280_temperature;BME280_humidity;BME280_pressure;Samples;Min_cycle;Max_cycle;Signal;HPM_P1;HPM_P2
2023/10/08 00:01:13;;;;;;;8.10;4.90;;;11.50;99.90;;;;;;4986242;28;20579;-64
2023/10/08 00:03:48;;;;;;;8.90;5.73;;;11.50;99.90;;;;;;4983480;28;20571;-64
2023/10/08 00:06:20;;;;;;;7.70;5.50;;;11.50;99.90;;;;;;4983798;28;20495;-64
2023/10/08 00:08:48;;;;;;;8.30;5.53;;;11.50;99.90;;;;;;4983137;28;20473;-64
2023/10/08 00:11:16;;;;;;;6.70;5.30;;;11.50;99.90;;;;;;4982551;28;20523;-64
2023/10/08 00:13:48;;;;;;;7.10;4.87;;;11.50;99.90;;;;;;4983640;28;21006;-64
2023/10/08 00:16:16;;;;;;;9.83;5.70;;;11.60;99.90;;;;;;4981846;28;20499;-64
2023/10/08 00:18:50;;;;;;;6.73;4.90;;;11.50;99.90;;;;;;4982766;28;22245;-64
2023/10/08 00:21:26;;;;;;;7.77;5.27;;;11.60;99.90;;;;;;4981139;28;21002;-63
2023/10/08 00:23:57;;;;;;;6.77;4.77;;;11.50;99.90;;;;;;4982561;28;20555;-63
2023/10/08 00:26:29;;;;;;;9.63;5.67;;;11.60;99.90;;;;;;4984123;28;20496;-64
2023/10/08 00:28:59;;;;;;;6.50;5.80;;;11.50;99.90;;;;;;4983718;28;20499;-64
2023/10/08 00:31:32;;;;;;;9.63;5.23;;;11.50;99.90;;;;;;4983877;28;21187;-64
2023/10/08 00:34:01;;;;;;;9.00;4.53;;;11.50;99.90;;;;;;4983954;28;20492;-63
2023/10/08 00:36:30;;;;;;;12.40;5.80;;;11.50;99.90;;;;;;4980530;28;20550;-63
2023/10/08 00:39:00;;;;;;;7.63;5.10;;;11.50;99.90;;;;;;4984509;28;20910;-63
2023/10/08 00:41:30;;;;;;;9.10;6.00;;;11.50;99.90;;;;;;4983066;28;20500;-64
2023/10/08 00:44:00;;;;;;;9.80;6.43;;;11.50;99.90;;;;;;4983429;28;21515;-63
2023/10/08 00:46:31;;;;;;;8.20;5.80;;;11.50;99.90;;;;;;4977740;28;20489;-64
2023/10/08 00:49:20;;;;;;;9.00;5.80;;;11.50;99.90;;;;;;4980336;28;20473;-64
2023/10/08 00:52:04;;;;;;;6.63;5.90;;;11.50;99.90;;;;;;4979350;28;20484;-64
2023/10/08 00:54:34;;;;;;;9.63;5.80;;;11.50;99.90;;;;;;4977774;28;20726;-62
2023/10/08 00:57:05;;;;;;;8.33;5.80;;;11.50;99.90;;;;;;4976220;28;20508;-65
2023/10/08 00:59:42;;;;;;;7.07;6.07;;;11.50;99.90;;;;;;4981354;28;20469;-64
2023/10/08 01:02:14;;;;;;;9.37;4.93;;;11.50;99.90;;;;;;4980302;28;20817;-65
2023/10/08 01:04:44;;;;;;;7.27;4.27;;;11.50;99.90;;;;;;4983966;28;20571;-65
2023/10/08 01:07:16;;;;;;;6.20;5.30;;;11.50;99.90;;;;;;4981055;28;20499;-65
2023/10/08 01:09:50;;;;;;;10.20;4.53;;;11.50;99.90;;;;;;4981853;28;20477;-65
2023/10/08 01:12:23;;;;;;;7.37;4.17;;;11.50;99.90;;;;;;4985488;28;20473;-65
2023/10/08 01:14:53;;;;;;;4.57;3.60;;;11.40;99.90;;;;;;4982962;28;20489;-65
2023/10/08 01:17:26;;;;;;;10.10;3.97;;;11.40;99.90;;;;;;4984068;28;20559;-65
2023/10/08 01:20:00;;;;;;;7.07;3.60;;;11.40;99.90;;;;;;4983272;28;20480;-65
2023/10/08 01:22:30;;;;;;;6.70;4.10;;;11.40;99.90;;;;;;4981078;28;20504;-65
2023/10/08 01:25:01;;;;;;;8.13;3.57;;;11.40;99.90;;;;;;4980553;28;20492;-64
2023/10/08 01:27:34;;;;;;;7.70;3.67;;;11.40;99.90;;;;;;4984925;28;20962;-65
2023/10/08 01:30:12;;;;;;;8.60;3.53;;;11.40;99.90;;;;;;4983617;28;20500;-65
2023/10/08 01:32:40;;;;;;;4.80;2.93;;;11.40;99.90;;;;;;4982621;28;20499;-65
2023/10/08 01:35:22;;;;;;;5.80;3.00;;;11.40;99.90;;;;;;4982205;28;20493;-65
2023/10/08 01:37:52;;;;;;;5.40;3.00;;;11.40;99.90;;;;;;4984533;28;20476;-65
2023/10/08 01:40:20;;;;;;;5.13;2.90;;;11.40;99.90;;;;;;4985980;28;20468;-65
2023/10/08 01:42:52;;;;;;;7.10;3.17;;;11.40;99.90;;;;;;4983899;28;20595;-65
2023/10/08 01:45:24;;;;;;;8.03;3.50;;;11.40;99.90;;;;;;4983290;28;20499;-65
2023/10/08 01:47:54;;;;;;;6.13;3.33;;;11.40;99.90;;;;;;4979653;28;20547;-65
2023/10/08 01:50:24;;;;;;;5.40;2.40;;;11.40;99.90;;;;;;4978577;28;20477;-65
2023/10/08 01:52:54;;;;;;;5.00;2.53;;;11.40;99.90;;;;;;4981437;28;20505;-65
2023/10/08 01:55:23;;;;;;;6.57;3.00;;;11.40;99.90;;;;;;4983105;28;20481;-65
2023/10/08 01:57:52;;;;;;;6.40;2.20;;;11.40;99.90;;;;;;4982041;28;20466;-65
2023/10/08 02:00:21;;;;;;;7.97;3.00;;;11.40;99.90;;;;;;4981611;28;20476;-65
2023/10/08 02:02:51;;;;;;;7.27;2.67;;;11.40;99.90;;;;;;4979033;28;20572;-65
2023/10/08 02:05:19;;;;;;;4.37;2.33;;;11.40;99.90;;;;;;4981613;28;20540;-65
2023/10/08 02:07:48;;;;;;;5.90;2.20;;;11.40;99.90;;;;;;4974092;28;20896;-65
2023/10/08 02:10:17;;;;;;;4.33;2.20;;;11.40;99.90;;;;;;4979849;28;20485;-65
2023/10/08 02:12:45;;;;;;;4.60;2.33;;;11.40;99.90;;;;;;4980157;28;21192;-65
2023/10/08 02:15:13;;;;;;;5.10;2.10;;;11.40;99.90;;;;;;4980129;28;20495;-65
2023/10/08 02:17:43;;;;;;;4.53;2.13;;;11.40;99.90;;;;;;4984004;28;20904;-65
2023/10/08 02:20:12;;;;;;;3.93;1.90;;;11.40;99.90;;;;;;4982452;28;20470;-65
2023/10/08 02:22:41;;;;;;;3.10;2.50;;;11.40;99.90;;;;;;4983605;28;20485;-64
2023/10/08 02:25:11;;;;;;;3.03;2.30;;;11.40;99.90;;;;;;4979896;28;20489;-64
2023/10/08 02:27:41;;;;;;;4.70;2.00;;;11.40;99.90;;;;;;4983877;28;20531;-64
2023/10/08 02:30:12;;;;;;;2.77;1.90;;;11.30;99.90;;;;;;4983466;28;20498;-64
2023/10/08 02:32:42;;;;;;;4.20;2.27;;;11.30;99.90;;;;;;4981813;28;21086;-64
2023/10/08 02:35:12;;;;;;;4.10;2.40;;;11.30;99.90;;;;;;4983059;28;20489;-64
2023/10/08 02:37:41;;;;;;;3.87;2.10;;;11.30;99.90;;;;;;4980912;28;20470;-64
2023/10/08 02:40:15;;;;;;;3.20;2.10;;;11.30;99.90;;;;;;4984724;28;20479;-64
2023/10/08 02:42:46;;;;;;;4.83;2.10;;;11.30;99.90;;;;;;4982560;28;20498;-64
2023/10/08 02:45:14;;;;;;;5.97;1.97;;;11.30;99.90;;;;;;4982991;28;20496;-64
2023/10/08 02:47:44;;;;;;;3.53;1.97;;;11.30;99.90;;;;;;4985391;28;21025;-64
2023/10/08 02:50:16;;;;;;;3.47;1.90;;;11.30;99.90;;;;;;4984779;28;20476;-64
2023/10/08 02:52:45;;;;;;;6.30;2.23;;;11.30;99.90;;;;;;4981739;28;20501;-64
2023/10/08 02:55:26;;;;;;;3.50;2.27;;;11.20;99.90;;;;;;4981665;28;20578;-64
2023/10/08 02:57:57;;;;;;;3.67;1.70;;;11.30;99.90;;;;;;4983533;28;20557;-64
2023/10/08 03:00:29;;;;;;;2.60;1.60;;;11.20;99.90;;;;;;4983394;28;20481;-64
2023/10/08 03:02:58;;;;;;;2.27;1.70;;;11.30;99.90;;;;;;4981316;28;20591;-64
2023/10/08 03:05:31;;;;;;;8.17;2.27;;;11.20;99.90;;;;;;4982103;28;20510;-64
2023/10/08 03:07:59;;;;;;;2.90;1.80;;;11.30;99.90;;;;;;4982682;28;20926;-64
2023/10/08 03:10:33;;;;;;;3.27;2.50;;;11.20;99.90;;;;;;4982074;28;20473;-64
2023/10/08 03:13:05;;;;;;;2.50;1.67;;;11.20;99.90;;;;;;4980694;28;20496;-64
2023/10/08 03:15:46;;;;;;;3.23;1.80;;;11.20;99.90;;;;;;4984071;28;20489;-64
2023/10/08 03:18:15;;;;;;;3.77;2.13;;;11.20;99.90;;;;;;4986938;28;20472;-64
2023/10/08 03:20:44;;;;;;;4.17;1.50;;;11.20;99.90;;;;;;4985425;28;21523;-64
2023/10/08 03:23:23;;;;;;;3.07;1.67;;;11.20;99.90;;;;;;4988465;28;20978;-64
2023/10/08 03:25:57;;;;;;;2.40;1.83;;;11.20;99.90;;;;;;4965793;28;20493;-64
2023/10/08 03:28:27;;;;;;;3.73;1.47;;;11.10;99.90;;;;;;4956569;28;20572;-63
2023/10/08 03:31:03;;;;;;;3.93;1.93;;;11.10;99.90;;;;;;4964762;28;20480;-64
2023/10/08 03:33:34;;;;;;;4.97;1.87;;;11.10;99.90;;;;;;4965003;28;20497;-64
2023/10/08 03:36:09;;;;;;;3.80;1.73;;;11.10;99.90;;;;;;4986292;28;20492;-64
2023/10/08 03:38:50;;;;;;;2.80;1.57;;;11.10;99.90;;;;;;4988037;28;20477;-64
2023/10/08 03:41:27;;;;;;;5.07;1.97;;;11.10;99.90;;;;;;4989861;28;20560;-63
2023/10/08 03:44:01;;;;;;;4.30;1.60;;;11.10;99.90;;;;;;4987314;28;20604;-64
2023/10/08 03:46:30;;;;;;;5.00;2.10;;;11.10;99.90;;;;;;4988533;28;20867;-64
2023/10/08 03:49:04;;;;;;;3.33;1.77;;;11.00;99.90;;;;;;4989693;28;20978;-64
2023/10/08 03:51:39;;;;;;;2.53;1.50;;;11.00;99.90;;;;;;4991253;28;20481;-63
2023/10/08 03:54:15;;;;;;;4.40;1.63;;;11.00;99.90;;;;;;4990686;28;20515;-63
2023/10/08 03:56:48;;;;;;;3.83;1.50;;;11.00;99.90;;;;;;4980507;28;20543;-64
2023/10/08 03:59:30;;;;;;;3.50;1.40;;;11.00;99.90;;;;;;4987137;28;20501;-64
2023/10/08 04:02:09;;;;;;;3.17;1.63;;;10.90;99.90;;;;;;4985452;28;21063;-63
2023/10/08 04:04:50;;;;;;;2.23;1.40;;;10.90;99.90;;;;;;4985413;28;20584;-64
2023/10/08 04:07:39;;;;;;;1.83;1.30;;;10.90;99.90;;;;;;4979004;28;20496;-64
2023/10/08 04:10:49;;;;;;;3.50;1.33;;;10.80;99.90;;;;;;4984025;28;20471;-64
2023/10/08 04:13:23;;;;;;;4.07;1.80;;;10.80;99.90;;;;;;4981762;28;20547;-64
2023/10/08 04:15:52;;;;;;;1.90;1.30;;;10.80;99.90;;;;;;4987660;28;20489;-65
2023/10/08 04:18:20;;;;;;;2.43;1.33;;;10.80;99.90;;;;;;4984246;28;20477;-63
2023/10/08 04:21:00;;;;;;;1.93;1.37;;;10.80;99.90;;;;;;4986488;28;21155;-64
2023/10/08 04:23:29;;;;;;;2.30;1.70;;;10.80;99.90;;;;;;4989055;28;20496;-64
2023/10/08 04:25:58;;;;;;;3.17;1.30;;;10.80;99.90;;;;;;4987441;28;20570;-63
2023/10/08 04:28:28;;;;;;;1.43;1.20;;;10.80;99.90;;;;;;4987859;28;20503;-63
2023/10/08 04:31:01;;;;;;;4.33;1.87;;;10.80;99.90;;;;;;4990367;28;21064;-64
2023/10/08 04:33:33;;;;;;;1.27;1.07;;;10.80;99.90;;;;;;4987479;28;20492;-64
2023/10/08 04:36:02;;;;;;;2.00;1.30;;;10.70;99.90;;;;;;4989344;28;20489;-64
2023/10/08 04:38:36;;;;;;;2.47;1.30;;;10.70;99.90;;;;;;4988612;28;20505;-64
2023/10/08 04:41:08;;;;;;;6.27;1.87;;;10.70;99.90;;;;;;4986160;28;20493;-64
2023/10/08 04:43:38;;;;;;;2.40;1.40;;;10.70;99.90;;;;;;4984076;28;20488;-65
2023/10/08 04:46:19;;;;;;;4.53;1.40;;;10.70;99.90;;;;;;4984552;28;20580;-63
2023/10/08 04:48:49;;;;;;;3.33;1.37;;;10.70;99.90;;;;;;4987940;28;20470;-64
2023/10/08 04:51:17;;;;;;;2.10;1.33;;;10.60;99.90;;;;;;4981575;28;20959;-63
2023/10/08 04:53:47;;;;;;;1.73;1.23;;;10.60;99.90;;;;;;4986425;28;20504;-64
2023/10/08 04:56:16;;;;;;;2.47;1.10;;;10.60;99.90;;;;;;4988731;28;20500;-64
2023/10/08 04:58:47;;;;;;;3.47;1.50;;;10.60;99.90;;;;;;4986943;28;21037;-64
2023/10/08 05:01:27;;;;;;;3.23;1.30;;;10.60;99.90;;;;;;4989485;28;20477;-64
2023/10/08 05:04:23;;;;;;;3.13;1.57;;;10.50;99.90;;;;;;4988259;28;20484;-63
2023/10/08 05:07:17;;;;;;;2.53;1.23;;;10.50;99.90;;;;;;4986624;28;20492;-64
2023/10/08 05:09:52;;;;;;;3.10;1.93;;;10.50;99.90;;;;;;4982621;28;20468;-64
2023/10/08 05:12:37;;;;;;;6.43;1.63;;;10.60;99.90;;;;;;4986045;28;20469;-64
2023/10/08 05:15:21;;;;;;;2.10;1.30;;;10.50;99.90;;;;;;4970102;28;21101;-64
2023/10/08 05:18:13;;;;;;;5.43;1.60;;;10.50;99.90;;;;;;4961415;28;20564;-64
2023/10/08 05:20:59;;;;;;;1.53;1.40;;;10.50;99.90;;;;;;4958501;28;20560;-64
2023/10/08 05:26:21;;;;;;;1.33;1.20;;;10.50;99.90;;;;;;4980182;28;20635;-64
2023/10/08 05:29:00;;;;;;;3.27;1.20;;;10.40;99.90;;;;;;4984615;28;20588;-64
2023/10/08 05:31:46;;;;;;;2.40;1.50;;;10.40;99.90;;;;;;4979951;28;20477;-64
2023/10/08 05:34:18;;;;;;;2.67;1.20;;;10.40;99.90;;;;;;4979028;28;20552;-65
2023/10/08 05:37:11;;;;;;;3.87;1.50;;;10.40;99.90;;;;;;4984248;28;20477;-65
2023/10/08 05:39:42;;;;;;;3.47;1.40;;;10.40;99.90;;;;;;4980854;28;20567;-64
2023/10/08 05:42:20;;;;;;;1.80;1.30;;;10.40;99.90;;;;;;4983934;28;20986;-65
2023/10/08 05:45:13;;;;;;;1.40;1.10;;;10.40;99.90;;;;;;4980202;28;20861;-65
2023/10/08 05:47:51;;;;;;;2.03;1.20;;;10.40;99.90;;;;;;4985035;28;20529;-65
2023/10/08 05:50:38;;;;;;;4.63;1.40;;;10.30;99.90;;;;;;4985320;28;20562;-65
2023/10/08 05:53:29;;;;;;;1.93;1.30;;;10.30;99.90;;;;;;4981454;28;20591;-65
2023/10/08 05:56:16;;;;;;;1.57;1.10;;;10.40;99.90;;;;;;4987888;28;20493;-66
2023/10/08 05:59:00;;;;;;;3.10;1.57;;;10.30;99.90;;;;;;4987460;28;20851;-64
2023/10/08 06:01:39;;;;;;;2.00;1.37;;;10.30;99.90;;;;;;4979356;28;20513;-64
2023/10/08 06:04:30;;;;;;;5.17;1.50;;;10.30;99.90;;;;;;4960757;28;20905;-69
2023/10/08 06:07:12;;;;;;;1.70;1.30;;;10.30;99.90;;;;;;4968376;28;20481;-67
2023/10/08 06:09:50;;;;;;;1.20;1.10;;;10.30;99.90;;;;;;4977210;28;20568;-72
2023/10/08 06:12:29;;;;;;;2.57;1.23;;;10.30;99.90;;;;;;4980333;28;20542;-71
2023/10/08 06:15:12;;;;;;;6.60;1.60;;;10.20;99.90;;;;;;4980182;28;20504;-71
2023/10/08 06:17:56;;;;;;;2.17;1.20;;;10.30;99.90;;;;;;4978023;28;20477;-70
2023/10/08 06:20:26;;;;;;;2.23;1.13;;;10.20;99.90;;;;;;4975251;28;21107;-68
2023/10/08 06:23:03;;;;;;;2.07;1.40;;;10.20;99.90;;;;;;4980244;28;21065;-69
2023/10/08 06:25:31;;;;;;;1.40;1.20;;;10.20;99.90;;;;;;4978414;28;20484;-69
2023/10/08 06:27:59;;;;;;;1.50;1.27;;;10.20;99.90;;;;;;4978074;28;20503;-70
2023/10/08 06:30:29;;;;;;;1.70;1.60;;;10.20;99.90;;;;;;4975771;28;20473;-70
2023/10/08 06:32:58;;;;;;;1.80;1.40;;;10.20;99.90;;;;;;4976230;28;20492;-64
2023/10/08 06:35:27;;;;;;;2.73;1.70;;;10.20;99.90;;;;;;4967997;28;21022;-65
2023/10/08 06:37:59;;;;;;;2.47;1.47;;;10.20;99.90;;;;;;4958527;28;20482;-66
2023/10/08 06:40:43;;;;;;;3.07;1.30;;;10.20;99.90;;;;;;4959219;28;20502;-66
2023/10/08 06:43:21;;;;;;;3.40;1.20;;;10.20;99.90;;;;;;4957644;28;20927;-65
2023/10/08 06:45:53;;;;;;;1.73;1.30;;;10.20;99.90;;;;;;4975385;28;22308;-64
2023/10/08 06:48:23;;;;;;;1.50;1.40;;;10.20;99.90;;;;;;4981449;28;20533;-65
2023/10/08 06:50:56;;;;;;;2.60;1.47;;;10.20;99.90;;;;;;4982154;28;20477;-64
2023/10/08 06:53:29;;;;;;;3.93;1.63;;;10.20;99.90;;;;;;4982779;28;20586;-64
2023/10/08 06:55:58;;;;;;;2.23;1.10;;;10.20;99.90;;;;;;4965433;28;21173;-65
2023/10/08 06:58:26;;;;;;;1.83;1.20;;;10.30;99.90;;;;;;4959454;28;20470;-65
2023/10/08 07:00:55;;;;;;;2.30;1.73;;;10.30;99.90;;;;;;4955287;28;20565;-65
2023/10/08 07:03:24;;;;;;;2.37;1.27;;;10.30;99.90;;;;;;4943020;28;20501;-63
2023/10/08 07:05:59;;;;;;;1.80;1.40;;;10.30;99.90;;;;;;4973055;28;20496;-64
2023/10/08 07:08:32;;;;;;;7.10;1.40;;;10.30;99.90;;;;;;4973615;28;20642;-65
2023/10/08 07:11:06;;;;;;;1.90;1.30;;;10.40;99.90;;;;;;4982959;28;20477;-65
2023/10/08 07:13:37;;;;;;;2.27;1.70;;;10.40;99.90;;;;;;4979813;28;20868;-65
2023/10/08 07:16:06;;;;;;;2.50;1.63;;;10.50;99.90;;;;;;4980220;28;20513;-63
2023/10/08 07:18:34;;;;;;;2.67;1.40;;;10.50;99.90;;;;;;4981155;28;20473;-65
2023/10/08 07:21:11;;;;;;;2.83;1.53;;;10.50;99.90;;;;;;4982528;28;20477;-64
2023/10/08 07:23:55;;;;;;;1.77;1.30;;;10.50;99.90;;;;;;4983489;28;20550;-64
2023/10/08 07:26:25;;;;;;;4.10;1.63;;;10.60;99.90;;;;;;4983960;28;20516;-64
2023/10/08 07:28:54;;;;;;;2.83;1.30;;;10.60;99.90;;;;;;4985756;28;20588;-65
2023/10/08 07:31:23;;;;;;;2.27;1.60;;;10.60;99.90;;;;;;4973751;28;20461;-66
2023/10/08 07:33:56;;;;;;;3.80;2.00;;;10.70;99.90;;;;;;4979353;28;21090;-64
2023/10/08 07:36:24;;;;;;;2.73;1.43;;;10.80;99.90;;;;;;4982912;28;20511;-64
2023/10/08 07:38:54;;;;;;;2.37;1.30;;;10.90;99.90;;;;;;4958445;28;20476;-64
2023/10/08 07:41:22;;;;;;;2.60;1.63;;;11.00;99.90;;;;;;4976164;28;20468;-65
2023/10/08 07:43:55;;;;;;;1.97;1.47;;;11.00;99.90;;;;;;4971858;28;20524;-66
2023/10/08 07:46:26;;;;;;;2.30;1.27;;;11.00;99.90;;;;;;4966426;28;20487;-66
2023/10/08 07:48:54;;;;;;;3.50;1.30;;;11.00;99.90;;;;;;4966308;28;20562;-66
2023/10/08 07:51:23;;;;;;;1.73;1.30;;;11.00;99.90;;;;;;4972072;28;20535;-66
2023/10/08 07:53:54;;;;;;;5.10;1.37;;;11.00;99.90;;;;;;4967291;28;21175;-66
2023/10/08 07:56:24;;;;;;;2.30;1.20;;;11.00;99.90;;;;;;4965331;28;20563;-66
2023/10/08 07:58:55;;;;;;;2.70;1.20;;;11.00;99.90;;;;;;4968002;28;20469;-66
2023/10/08 08:01:25;;;;;;;2.60;1.50;;;11.00;99.90;;;;;;4969715;28;20472;-65
2023/10/08 08:03:53;;;;;;;2.27;1.00;;;11.10;99.90;;;;;;4973785;28;20931;-67
2023/10/08 08:06:22;;;;;;;3.17;1.27;;;11.10;99.90;;;;;;4971818;28;21048;-66
2023/10/08 08:08:51;;;;;;;4.20;1.57;;;11.10;99.90;;;;;;4975037;28;20503;-66
2023/10/08 08:11:24;;;;;;;3.00;1.40;;;11.10;99.90;;;;;;4982640;28;20842;-66
2023/10/08 08:13:53;;;;;;;2.50;1.07;;;11.20;99.90;;;;;;4988221;28;20488;-66
2023/10/08 08:16:22;;;;;;;3.80;1.17;;;11.20;99.90;;;;;;4974043;28;20487;-66
2023/10/08 08:18:51;;;;;;;2.60;1.20;;;11.30;99.90;;;;;;4977909;28;20538;-66
2023/10/08 08:21:23;;;;;;;2.60;1.20;;;11.30;99.90;;;;;;4968028;28;20567;-66
2023/10/08 08:23:52;;;;;;;2.90;1.20;;;11.40;99.90;;;;;;4974949;28;20507;-66
2023/10/08 08:26:28;;;;;;;2.60;1.30;;;11.40;99.90;;;;;;4987911;28;21350;-66
2023/10/08 08:29:01;;;;;;;5.50;1.50;;;11.50;99.90;;;;;;4985889;28;20505;-66
2023/10/08 08:31:31;;;;;;;2.50;1.10;;;11.50;99.90;;;;;;4982496;28;20555;-66
2023/10/08 08:34:02;;;;;;;2.27;1.60;;;11.50;99.90;;;;;;4978102;28;20516;-66
2023/10/08 08:36:32;;;;;;;4.47;1.47;;;11.60;99.90;;;;;;4983660;28;20477;-66
2023/10/08 08:39:01;;;;;;;2.87;1.37;;;11.60;99.90;;;;;;4974389;28;21029;-65
2023/10/08 08:41:29;;;;;;;1.87;1.30;;;11.70;99.90;;;;;;4985733;28;20480;-66
2023/10/08 08:43:59;;;;;;;2.70;1.67;;;11.70;99.90;;;;;;4984239;28;20505;-65
2023/10/08 08:46:31;;;;;;;2.73;1.33;;;11.70;99.90;;;;;;4984252;28;20475;-66
2023/10/08 08:49:03;;;;;;;1.90;1.10;;;11.80;99.90;;;;;;4982627;28;20503;-66
2023/10/08 08:51:32;;;;;;;1.70;1.30;;;11.80;99.90;;;;;;4984101;28;20599;-67
2023/10/08 08:54:05;;;;;;;3.17;1.50;;;11.80;99.90;;;;;;4973517;28;20588;-67
2023/10/08 08:56:34;;;;;;;3.77;1.17;;;11.90;99.90;;;;;;4980615;28;20641;-67
2023/10/08 08:59:13;;;;;;;3.07;1.23;;;12.00;99.90;;;;;;4982680;28;20469;-69
2023/10/08 09:01:42;;;;;;;4.40;1.17;;;12.00;99.90;;;;;;4984675;28;20528;-70
2023/10/08 09:04:11;;;;;;;4.57;1.50;;;12.10;99.90;;;;;;4983902;28;20505;-69
2023/10/08 09:06:39;;;;;;;3.07;1.10;;;12.20;99.90;;;;;;4986189;28;21002;-69
2023/10/08 09:09:21;;;;;;;2.73;1.00;;;12.30;99.90;;;;;;4983909;28;20944;-69
2023/10/08 09:11:52;;;;;;;2.10;1.20;;;12.30;99.90;;;;;;4979099;28;20994;-68
2023/10/08 09:14:25;;;;;;;3.53;1.20;;;12.30;99.90;;;;;;4981717;28;20489;-71
2023/10/08 09:16:54;;;;;;;2.00;1.10;;;12.30;99.90;;;;;;4982979;28;20469;-71
2023/10/08 09:19:24;;;;;;;2.93;1.20;;;12.50;99.90;;;;;;4984152;28;21146;-70
2023/10/08 09:22:04;;;;;;;1.67;1.00;;;12.50;99.90;;;;;;4984761;28;20720;-70
2023/10/08 09:24:36;;;;;;;1.63;1.00;;;12.50;99.90;;;;;;4981075;28;20962;-71
2023/10/08 09:27:05;;;;;;;3.10;1.03;;;12.60;99.90;;;;;;4984202;28;20472;-70
2023/10/08 09:29:39;;;;;;;2.60;1.27;;;12.70;99.90;;;;;;4980898;28;20539;-70
2023/10/08 09:32:13;;;;;;;3.43;1.30;;;12.80;99.90;;;;;;4983549;28;20468;-70
2023/10/08 09:34:40;;;;;;;1.73;1.07;;;12.80;99.90;;;;;;4985379;28;21024;-70
2023/10/08 09:37:08;;;;;;;1.67;1.07;;;12.90;99.90;;;;;;4982970;28;20509;-69
2023/10/08 09:39:38;;;;;;;2.20;1.13;;;12.90;99.90;;;;;;4983290;28;20852;-68
2023/10/08 09:42:06;;;;;;;1.90;1.27;;;12.90;99.90;;;;;;4984180;28;20855;-69
2023/10/08 09:44:36;;;;;;;3.53;1.43;;;12.90;99.90;;;;;;4984026;28;20516;-69
2023/10/08 09:47:06;;;;;;;2.50;1.17;;;13.00;99.90;;;;;;4981184;28;20478;-69
2023/10/08 09:49:41;;;;;;;1.30;1.00;;;13.00;99.90;;;;;;4974861;28;21264;-66
2023/10/08 09:52:10;;;;;;;1.60;0.90;;;13.00;99.90;;;;;;4964714;28;20472;-66
2023/10/08 09:54:44;;;;;;;2.20;1.07;;;13.10;99.90;;;;;;4973194;28;20509;-67
2023/10/08 09:57:13;;;;;;;2.03;1.10;;;13.30;99.90;;;;;;4957039;28;20562;-67
2023/10/08 09:59:43;;;;;;;2.40;1.10;;;13.30;99.90;;;;;;4968696;28;20474;-67
2023/10/08 10:02:11;;;;;;;2.90;1.13;;;13.40;99.90;;;;;;4968363;28;20486;-67
2023/10/08 10:04:44;;;;;;;2.03;0.80;;;13.50;99.90;;;;;;4971614;28;20643;-67
2023/10/08 10:07:16;;;;;;;2.33;0.90;;;13.60;99.90;;;;;;4967938;28;20472;-67
2023/10/08 10:09:47;;;;;;;2.63;1.47;;;13.70;99.90;;;;;;4973241;28;20578;-67
2023/10/08 10:12:25;;;;;;;1.67;1.43;;;13.80;99.90;;;;;;4967825;28;21050;-67
2023/10/08 10:14:56;;;;;;;2.10;0.90;;;13.90;99.90;;;;;;4968063;28;21222;-67
2023/10/08 10:17:26;;;;;;;1.97;1.00;;;14.00;99.90;;;;;;4972597;28;20500;-67
2023/10/08 10:20:13;;;;;;;1.47;1.03;;;14.20;99.90;;;;;;4969052;28;20472;-65
2023/10/08 10:22:44;;;;;;;2.60;0.93;;;14.30;99.90;;;;;;4974239;28;20576;-65
2023/10/08 10:25:17;;;;;;;2.03;1.00;;;14.40;99.90;;;;;;4972485;28;20914;-64
2023/10/08 10:28:20;;;;;;;2.97;1.00;;;14.50;99.90;;;;;;4972035;28;20583;-64
2023/10/08 10:30:52;;;;;;;3.93;1.20;;;14.60;99.90;;;;;;4969225;28;20493;-65
2023/10/08 10:33:21;;;;;;;2.37;1.03;;;14.70;99.90;;;;;;4972585;28;20871;-65
2023/10/08 10:35:55;;;;;;;1.70;1.00;;;14.90;99.90;;;;;;4969759;28;24332;-66
2023/10/08 10:38:26;;;;;;;1.47;0.80;;;15.10;99.90;;;;;;4968124;28;20468;-65
2023/10/08 10:40:57;;;;;;;1.13;0.70;;;15.20;99.90;;;;;;4966306;28;20473;-65
2023/10/08 10:43:32;;;;;;;3.20;1.27;;;15.20;99.90;;;;;;4968364;28;20590;-64
2023/10/08 10:46:24;;;;;;;2.87;1.20;;;15.30;99.90;;;;;;4971261;28;20748;-64
2023/10/08 10:49:05;;;;;;;1.70;0.97;;;15.40;99.90;;;;;;4951397;28;20555;-65
2023/10/08 10:51:33;;;;;;;3.33;0.70;;;15.60;99.90;;;;;;4970410;28;21035;-64
2023/10/08 10:54:07;;;;;;;1.07;0.93;;;15.70;99.90;;;;;;4965459;28;20511;-64
2023/10/08 10:56:41;;;;;;;1.10;0.77;;;15.90;99.90;;;;;;4967743;28;20559;-64
2023/10/08 10:59:18;;;;;;;0.83;0.70;;;16.00;99.90;;;;;;4965863;28;21001;-63
2023/10/08 11:01:52;;;;;;;4.87;0.90;;;16.10;99.90;;;;;;4966975;28;20477;-64
2023/10/08 11:04:28;;;;;;;1.77;0.77;;;16.20;99.90;;;;;;4969568;28;20492;-68
2023/10/08 11:06:58;;;;;;;2.10;1.00;;;16.20;99.90;;;;;;4966854;28;20504;-65
2023/10/08 11:09:35;;;;;;;2.30;0.97;;;16.40;99.90;;;;;;4970707;28;20527;-64
2023/10/08 11:12:10;;;;;;;2.73;1.00;;;16.50;99.90;;;;;;4972092;28;20485;-65
2023/10/08 11:14:42;;;;;;;1.33;1.00;;;16.60;99.90;;;;;;4968511;28;20811;-64
2023/10/08 11:17:14;;;;;;;3.30;0.90;;;16.80;99.90;;;;;;4969379;28;20473;-64
2023/10/08 11:19:45;;;;;;;1.40;0.90;;;17.10;99.90;;;;;;4973084;28;20481;-65
2023/10/08 11:22:17;;;;;;;1.53;0.97;;;17.20;99.90;;;;;;4966998;28;20481;-64
2023/10/08 11:24:47;;;;;;;1.60;1.00;;;17.20;99.90;;;;;;4970758;28;20567;-64
2023/10/08 11:27:28;;;;;;;3.50;1.30;;;17.20;99.90;;;;;;4972778;28;20551;-64
2023/10/08 11:29:57;;;;;;;4.40;1.30;;;17.40;99.90;;;;;;4974808;28;20481;-63
2023/10/08 11:32:32;;;;;;;2.17;1.07;;;17.50;99.90;;;;;;4953961;28;20482;-65
2023/10/08 11:35:15;;;;;;;4.70;1.20;;;17.60;99.90;;;;;;4973398;28;20484;-65
2023/10/08 11:37:48;;;;;;;1.17;1.07;;;17.70;99.90;;;;;;4976589;28;21599;-65
2023/10/08 11:40:28;;;;;;;2.53;1.10;;;17.90;99.90;;;;;;4978149;28;20481;-65
2023/10/08 11:42:58;;;;;;;2.00;1.20;;;17.90;99.90;;;;;;4973091;28;20488;-65
2023/10/08 11:45:27;;;;;;;1.20;1.10;;;17.90;99.90;;;;;;4971609;28;20488;-64
2023/10/08 11:47:57;;;;;;;2.30;1.30;;;17.80;99.90;;;;;;4963357;28;20487;-65
2023/10/08 11:50:30;;;;;;;1.50;1.40;;;17.70;99.90;;;;;;4966338;28;20490;-65
2023/10/08 11:53:02;;;;;;;1.80;0.93;;;17.80;99.90;;;;;;4968005;28;21258;-66
2023/10/08 11:55:35;;;;;;;1.70;1.20;;;18.20;99.90;;;;;;4969110;28;20620;-64
2023/10/08 11:58:09;;;;;;;1.50;0.90;;;18.90;99.90;;;;;;4960774;28;20511;-65
2023/10/08 12:00:44;;;;;;;1.80;1.10;;;19.60;99.90;;;;;;4962868;28;21591;-65
2023/10/08 12:03:17;;;;;;;1.37;1.27;;;20.20;99.90;;;;;;4972088;28;20603;-65
2023/10/08 12:05:58;;;;;;;1.30;1.03;;;20.90;99.90;;;;;;4970447;28;20540;-65
2023/10/08 12:08:28;;;;;;;1.67;1.10;;;21.70;99.90;;;;;;4973005;28;20490;-65
2023/10/08 12:11:00;;;;;;;2.90;1.10;;;23.40;99.90;;;;;;4980006;28;20496;-65
2023/10/08 12:13:28;;;;;;;1.30;1.03;;;25.00;94.90;;;;;;4973178;28;21033;-65
2023/10/08 12:16:05;;;;;;;1.23;0.77;;;25.70;75.10;;;;;;4963879;28;20572;-65
2023/10/08 12:18:39;;;;;;;1.10;1.00;;;25.40;76.50;;;;;;4969908;28;20477;-64
2023/10/08 12:21:10;;;;;;;1.97;1.03;;;25.10;82.80;;;;;;4968089;28;20476;-63
2023/10/08 12:23:39;;;;;;;1.57;1.03;;;24.90;80.80;;;;;;4964104;28;20503;-66
2023/10/08 12:26:08;;;;;;;1.40;1.03;;;24.50;81.80;;;;;;4963544;28;20494;-65
2023/10/08 12:28:37;;;;;;;1.93;1.33;;;24.20;84.40;;;;;;4973687;28;20481;-65
2023/10/08 12:31:05;;;;;;;1.80;1.13;;;24.20;84.00;;;;;;4971425;28;20492;-65
2023/10/08 12:33:34;;;;;;;1.30;1.07;;;25.00;76.00;;;;;;4965333;28;20489;-65
2023/10/08 12:36:10;;;;;;;1.20;0.87;;;25.80;67.50;;;;;;4966816;28;20497;-65
2023/10/08 12:38:41;;;;;;;0.83;0.83;;;25.70;58.40;;;;;;4964746;28;20469;-65
2023/10/08 12:41:13;;;;;;;2.10;1.23;;;25.80;63.10;;;;;;4969676;28;20469;-65
2023/10/08 12:43:44;;;;;;;2.07;1.23;;;26.60;61.80;;;;;;4962298;28;20503;-66
2023/10/08 12:46:23;;;;;;;4.03;1.43;;;27.50;52.90;;;;;;4966456;28;21165;-66
2023/10/08 12:48:54;;;;;;;3.00;1.47;;;26.80;51.80;;;;;;4965560;28;20519;-66
2023/10/08 12:51:25;;;;;;;1.37;0.97;;;25.70;52.50;;;;;;4967266;28;20498;-66
2023/10/08 12:54:03;;;;;;;1.23;1.00;;;24.90;52.20;;;;;;4972117;28;20639;-66
2023/10/08 12:56:39;;;;;;;2.13;1.10;;;24.20;52.70;;;;;;4978371;28;20472;-65
2023/10/08 12:59:07;;;;;;;1.77;1.03;;;23.10;63.00;;;;;;4973115;28;20817;-64
2023/10/08 13:01:36;;;;;;;1.60;1.00;;;22.10;77.10;;;;;;4975329;28;20473;-64
2023/10/08 13:04:15;;;;;;;1.33;1.17;;;21.30;91.20;;;;;;4970553;28;20497;-65
2023/10/08 13:06:45;;;;;;;1.10;1.00;;;20.60;97.20;;;;;;4975163;28;20488;-64
2023/10/08 13:09:13;;;;;;;1.03;0.93;;;20.00;93.90;;;;;;4975707;28;20504;-64
2023/10/08 13:11:42;;;;;;;1.80;1.10;;;19.50;99.90;;;;;;4978575;28;20531;-66
2023/10/08 13:14:12;;;;;;;1.63;1.20;;;19.10;99.90;;;;;;4973048;28;20524;-65
2023/10/08 13:16:40;;;;;;;1.47;1.20;;;18.80;99.90;;;;;;4966343;28;20602;-64
2023/10/08 13:19:10;;;;;;;3.53;1.10;;;18.50;99.90;;;;;;4972074;28;20484;-65